Time;durP1;ratioP1;P1;durP2;ratioP2;P2;SDS_P1;SDS_P2;PMS_P1;PMS_P2;Temp;Humidity;BMP_temperature;BMP_pressure;BME280_temperature;BME280_humidity;BME280_pressure;Samples;Min_cycle;Max_cycle;Signal;HPM_P1;HPM_P2
2023/06/02 00:02:23;;;;;;;7.57;3.73;;;;;;;18.41;94.58;96066.78;6122029;23;20166;-81
2023/06/02 00:04:51;;;;;;;8.90;4.43;;;;;;;18.60;93.84;96065.84;6146209;23;20005;-81
2023/06/02 00:07:18;;;;;;;6.57;3.57;;;;;;;18.45;95.28;96072.50;6122125;23;20016;-81
2023/06/02 00:09:44;;;;;;;7.90;4.10;;;;;;;18.45;97.38;96070.66;6122313;23;20646;-81
2023/06/02 00:12:13;;;;;;;8.50;3.80;;;;;;;18.37;100.00;96070.88;6120799;23;20009;-81
2023/06/02 00:14:42;;;;;;;6.73;3.73;;;;;;;18.41;100.00;96065.94;6145918;23;20009;-81
2023/06/02 00:17:08;;;;;;;9.03;4.00;;;;;;;18.18;100.00;96066.47;6129131;23;20064;-81
2023/06/02 00:19:35;;;;;;;11.33;4.27;;;;;;;18.22;100.00;96060.53;6131490;23;20091;-81
2023/06/02 00:22:02;;;;;;;8.53;3.77;;;;;;;18.12;100.00;96068.94;6152503;23;20009;-81
2023/06/02 00:24:28;;;;;;;7.83;4.03;;;;;;;17.76;100.00;96074.78;6146858;23;20009;-81
2023/06/02 00:26:58;;;;;;;10.23;3.63;;;;;;;17.86;100.00;96072.50;6122550;23;20001;-81
2023/06/02 00:29:24;;;;;;;8.23;3.90;;;;;;;17.92;100.00;96067.38;6123221;23;20349;-81
2023/06/02 00:31:50;;;;;;;9.97;3.70;;;;;;;17.71;100.00;96071.91;6123009;23;20009;-81
2023/06/02 00:34:15;;;;;;;6.73;3.73;;;;;;;17.78;100.00;96069.25;6122783;23;20028;-81
2023/06/02 00:36:41;;;;;;;7.90;3.77;;;;;;;17.76;100.00;96074.78;6122687;23;20342;-81
2023/06/02 00:39:07;;;;;;;7.87;3.90;;;;;;;17.65;100.00;96067.41;6147165;23;20005;-82
2023/06/02 00:41:33;;;;;;;7.10;4.30;;;;;;;17.82;99.62;96065.16;6122095;23;20009;-81
2023/06/02 00:43:59;;;;;;;8.13;3.60;;;;;;;17.73;100.00;96069.84;6122311;23;20765;-81
2023/06/02 00:46:25;;;;;;;7.90;4.50;;;;;;;17.68;100.00;96070.47;6146761;23;20017;-81
2023/06/02 00:48:51;;;;;;;10.37;4.17;;;;;;;17.74;100.00;96073.31;6122958;23;20000;-82
2023/06/02 00:51:17;;;;;;;7.37;3.73;;;;;;;17.74;100.00;96075.97;6122470;23;20084;-81
2023/06/02 00:53:44;;;;;;;5.83;3.30;;;;;;;17.67;100.00;96071.50;6131975;23;20181;-81
2023/06/02 00:56:14;;;;;;;8.33;4.10;;;;;;;17.59;100.00;96074.38;6156300;23;19997;-81
2023/06/02 00:58:43;;;;;;;7.20;3.40;;;;;;;17.65;100.00;96072.72;6155793;23;20009;-81
2023/06/02 01:01:12;;;;;;;7.30;3.67;;;;;;;17.42;100.00;96073.16;6130870;23;20306;-81
2023/06/02 01:03:39;;;;;;;6.07;3.73;;;;;;;17.10;100.00;96075.63;6131861;23;20024;-82
2023/06/02 01:06:06;;;;;;;7.07;3.60;;;;;;;17.19;100.00;96066.44;6132047;23;20005;-81
2023/06/02 01:08:45;;;;;;;7.87;3.57;;;;;;;17.22;100.00;96070.53;6131737;23;20091;-81
2023/06/02 01:11:11;;;;;;;7.50;3.70;;;;;;;17.43;100.00;96069.47;6133708;23;20060;-82
2023/06/02 01:13:37;;;;;;;8.27;4.23;;;;;;;17.30;100.00;96064.97;6158664;23;20188;-81
2023/06/02 01:16:02;;;;;;;6.63;3.70;;;;;;;17.24;100.00;96068.47;6134023;23;20001;-81
2023/06/02 01:18:35;;;;;;;8.37;4.00;;;;;;;17.00;100.00;96063.75;6134097;23;20433;-81
2023/06/02 01:21:03;;;;;;;5.10;2.88;;;;;;;17.02;100.00;96065.19;6134455;23;20317;-81
2023/06/02 01:23:36;;;;;;;10.33;4.30;;;;;;;16.93;100.00;96063.75;6149419;23;20005;-81
2023/06/02 01:26:08;;;;;;;8.43;3.67;;;;;;;16.87;100.00;96059.28;6124398;23;20012;-81
2023/06/02 01:28:34;;;;;;;8.07;4.20;;;;;;;16.88;100.00;96066.22;6147662;23;19997;-81
2023/06/02 01:31:11;;;;;;;6.83;3.70;;;;;;;16.85;100.00;96061.31;6149085;23;20004;-81
2023/06/02 01:34:05;;;;;;;7.20;3.60;;;;;;;16.93;100.00;96058.44;6124294;23;20412;-81
2023/06/02 01:36:35;;;;;;;7.63;3.83;;;;;;;17.02;100.00;96056.41;6149250;23;20001;-81
2023/06/02 01:39:02;;;;;;;8.40;3.90;;;;;;;16.78;100.00;96061.28;6143590;23;20333;-81
2023/06/02 01:41:30;;;;;;;8.40;4.13;;;;;;;16.91;100.00;96065.81;6144082;23;20009;-81
2023/06/02 01:43:56;;;;;;;9.13;4.03;;;;;;;16.57;100.00;96056.94;6118424;23;20479;-81
2023/06/02 01:46:26;;;;;;;7.00;3.93;;;;;;;16.60;100.00;96064.50;6117789;23;20057;-81
2023/06/02 01:48:53;;;;;;;6.13;3.83;;;;;;;16.57;100.00;96064.09;6141634;23;20765;-81
2023/06/02 01:51:19;;;;;;;7.20;4.33;;;;;;;16.37;100.00;96066.69;6141838;23;20009;-81
2023/06/02 01:53:44;;;;;;;9.07;3.97;;;;;;;16.29;100.00;96067.66;6123592;23;20345;-81
2023/06/02 01:56:10;;;;;;;7.37;4.10;;;;;;;15.92;100.00;96068.94;6144856;23;20036;-81
2023/06/02 01:58:36;;;;;;;9.17;5.03;;;;;;;15.88;100.00;96065.06;6121211;23;20001;-81
2023/06/02 02:01:06;;;;;;;6.63;3.90;;;;;;;16.02;100.00;96061.44;6148345;23;20008;-81
2023/06/02 02:03:32;;;;;;;8.50;4.10;;;;;;;16.05;100.00;96055.75;6143668;23;20053;-81
2023/06/02 02:05:59;;;;;;;9.43;4.53;;;;;;;16.01;100.00;96052.66;6146757;23;20452;-81
2023/06/02 02:08:24;;;;;;;8.50;4.63;;;;;;;16.04;100.00;96051.47;6153404;23;20040;-81
2023/06/02 02:10:50;;;;;;;8.20;4.40;;;;;;;15.89;100.00;96050.78;6158458;23;20005;-81
2023/06/02 02:13:15;;;;;;;9.60;4.77;;;;;;;15.86;100.00;96053.81;6157742;23;20012;-81
2023/06/02 02:15:41;;;;;;;7.70;4.40;;;;;;;15.74;100.00;96054.38;6133102;23;20352;-80
2023/06/02 02:18:07;;;;;;;10.93;4.60;;;;;;;15.67;100.00;96050.88;6133234;23;20017;-81
2023/06/02 02:20:42;;;;;;;8.80;4.40;;;;;;;15.73;100.00;96065.19;6132348;23;20005;-81
2023/06/02 02:23:08;;;;;;;6.70;4.27;;;;;;;15.58;100.00;96057.31;6152276;23;20012;-80
2023/06/02 02:25:33;;;;;;;8.50;4.47;;;;;;;15.42;100.00;96054.94;6148796;23;20009;-80
2023/06/02 02:27:59;;;;;;;9.07;4.93;;;;;;;15.56;100.00;96062.81;6122313;23;20009;-80
2023/06/02 02:30:25;;;;;;;9.63;5.23;;;;;;;15.26;100.00;96064.03;6123749;23;20016;-80
2023/06/02 02:32:51;;;;;;;7.37;4.70;;;;;;;15.28;100.00;96060.16;6122332;23;20319;-80
2023/06/02 02:35:17;;;;;;;10.67;5.37;;;;;;;15.10;100.00;96065.13;6117382;23;20001;-80
2023/06/02 02:37:44;;;;;;;8.27;4.83;;;;;;;15.13;100.00;96069.22;6118445;23;20012;-80
2023/06/02 02:40:10;;;;;;;8.07;5.00;;;;;;;15.09;100.00;96066.16;6117986;23;20009;-80
2023/06/02 02:42:35;;;;;;;9.13;4.70;;;;;;;14.89;100.00;96070.44;6117603;23;20671;-80
2023/06/02 02:45:04;;;;;;;9.50;4.77;;;;;;;14.83;100.00;96067.53;6137126;23;20414;-80
2023/06/02 02:47:32;;;;;;;10.53;4.83;;;;;;;14.87;100.00;96072.47;6138718;23;20001;-80
2023/06/02 02:49:58;;;;;;;15.50;5.40;;;;;;;14.71;100.00;96079.63;6113255;23;20020;-80
2023/06/02 02:52:24;;;;;;;8.53;4.73;;;;;;;14.63;100.00;96082.41;6137913;23;20021;-80
2023/06/02 02:54:49;;;;;;;8.80;5.03;;;;;;;14.70;100.00;96079.84;6142363;23;20012;-80
2023/06/02 02:57:15;;;;;;;9.43;4.83;;;;;;;14.78;100.00;96077.88;6117049;23;20019;-81
2023/06/02 02:59:40;;;;;;;8.17;4.97;;;;;;;14.74;100.00;96089.84;6116858;23;20004;-81
2023/06/02 03:02:06;;;;;;;11.97;5.33;;;;;;;14.53;100.00;96089.84;6116202;23;20008;-80
2023/06/02 03:04:34;;;;;;;8.03;4.60;;;;;;;14.56;100.00;96095.59;6122092;23;20012;-80
2023/06/02 03:07:04;;;;;;;8.97;4.87;;;;;;;14.52;100.00;96091.69;6124247;23;20027;-80
2023/06/02 03:09:30;;;;;;;9.67;5.37;;;;;;;14.41;100.00;96089.47;6149366;23;20013;-80
2023/06/02 03:11:58;;;;;;;9.40;5.00;;;;;;;14.64;100.00;96094.63;6147628;23;20001;-80
2023/06/02 03:14:27;;;;;;;14.07;5.60;;;;;;;14.63;100.00;96086.91;6132683;23;20072;-81
2023/06/02 03:16:54;;;;;;;10.30;5.60;;;;;;;14.71;100.00;96084.94;6132965;23;20005;-80
2023/06/02 03:19:23;;;;;;;8.60;5.13;;;;;;;14.64;100.00;96089.34;6132845;23;20033;-81
2023/06/02 03:21:51;;;;;;;7.90;4.97;;;;;;;14.71;100.00;96084.94;6131743;23;20005;-80
2023/06/02 03:24:19;;;;;;;10.33;5.77;;;;;;;14.77;100.00;96089.47;6122659;23;20005;-80
2023/06/02 03:26:49;;;;;;;11.03;5.50;;;;;;;14.50;100.00;96090.19;6147645;23;20037;-80
2023/06/02 03:29:15;;;;;;;9.70;5.40;;;;;;;14.48;100.00;96097.47;6119793;23;20013;-80
2023/06/02 03:31:43;;;;;;;9.90;5.60;;;;;;;14.55;100.00;96095.75;6146865;23;20009;-80
2023/06/02 03:34:11;;;;;;;10.87;5.90;;;;;;;14.47;100.00;96101.13;6147343;23;20005;-80
2023/06/02 03:36:37;;;;;;;13.57;6.00;;;;;;;14.28;100.00;96098.06;6148570;23;20084;-81
2023/06/02 03:39:06;;;;;;;11.17;6.07;;;;;;;14.07;100.00;96103.31;6127142;23;20016;-80
2023/06/02 03:41:33;;;;;;;10.00;5.80;;;;;;;14.14;100.00;96114.78;6124683;23;20341;-80
2023/06/02 03:44:01;;;;;;;9.47;6.50;;;;;;;14.19;100.00;96109.78;6124063;23;20703;-81
2023/06/02 03:46:27;;;;;;;13.07;6.33;;;;;;;14.14;100.00;96114.78;6148039;23;20015;-80
2023/06/02 03:48:53;;;;;;;10.43;6.47;;;;;;;14.12;100.00;96116.81;6147752;23;20786;-80
2023/06/02 03:51:19;;;;;;;10.97;6.20;;;;;;;14.22;100.00;96112.06;6146439;23;20023;-80
2023/06/02 03:53:46;;;;;;;9.97;6.03;;;;;;;14.06;100.00;96112.25;6130491;23;20063;-80
2023/06/02 03:56:12;;;;;;;10.83;6.27;;;;;;;14.20;100.00;96108.75;6132174;23;20039;-80
2023/06/02 03:58:38;;;;;;;13.10;7.47;;;;;;;14.24;100.00;96111.84;6132620;23;20009;-80
2023/06/02 04:01:04;;;;;;;11.17;6.40;;;;;;;14.41;100.00;96102.69;6157519;23;20027;-80
2023/06/02 04:03:37;;;;;;;10.77;6.00;;;;;;;14.52;100.00;96101.41;6156391;23;20008;-80
2023/06/02 04:06:06;;;;;;;10.68;6.47;;;;;;;14.23;100.00;96111.03;6132882;23;20068;-80
2023/06/02 04:08:34;;;;;;;12.43;7.00;;;;;;;14.36;100.00;96102.44;6131390;23;20031;-80
2023/06/02 04:11:00;;;;;;;9.80;6.57;;;;;;;14.03;100.00;96120.56;6132538;23;20630;-80
2023/06/02 04:13:28;;;;;;;9.73;6.43;;;;;;;14.02;100.00;96124.22;6156952;23;20011;-80
2023/06/02 04:15:53;;;;;;;11.40;6.77;;;;;;;14.11;100.00;96115.16;6132698;23;20011;-80
2023/06/02 04:18:20;;;;;;;9.77;5.67;;;;;;;14.09;100.00;96130.41;6131074;23;20043;-80
2023/06/02 04:20:47;;;;;;;11.03;5.50;;;;;;;14.23;100.00;96129.56;6149611;23;20071;-80
2023/06/02 04:23:13;;;;;;;12.30;6.47;;;;;;;14.19;100.00;96124.84;6116563;23;20037;-80
2023/06/02 04:25:39;;;;;;;11.10;6.47;;;;;;;14.37;100.00;96123.41;6142017;23;20047;-80
2023/06/02 04:28:05;;;;;;;13.07;6.77;;;;;;;14.19;100.00;96135.41;6121828;23;20008;-80
2023/06/02 04:30:31;;;;;;;10.83;6.80;;;;;;;14.49;100.00;96136.19;6129123;23;20012;-80
2023/06/02 04:32:57;;;;;;;12.57;6.90;;;;;;;14.59;100.00;96132.25;6132101;23;20016;-80
2023/06/02 04:35:22;;;;;;;11.00;7.20;;;;;;;14.43;100.00;96134.28;6162567;23;19996;-80
2023/06/02 04:37:48;;;;;;;10.50;7.07;;;;;;;14.49;100.00;96133.53;6122695;23;20036;-81
2023/06/02 04:40:15;;;;;;;8.47;5.80;;;;;;;14.58;100.00;96130.59;6117692;23;20090;-80
2023/06/02 04:42:42;;;;;;;11.63;7.03;;;;;;;14.59;100.00;96132.25;6117268;23;20015;-80
2023/06/02 04:45:12;;;;;;;10.07;6.53;;;;;;;14.76;100.00;96130.19;6118863;23;20019;-80
2023/06/02 04:47:40;;;;;;;10.83;8.00;;;;;;;14.88;100.00;96138.44;6142135;23;20644;-80
2023/06/02 04:50:10;;;;;;;12.27;7.30;;;;;;;14.75;100.00;96133.84;6119668;23;20012;-80
2023/06/02 04:52:41;;;;;;;15.30;7.70;;;;;;;14.94;100.00;96142.19;6119842;23;20083;-80
2023/06/02 04:55:08;;;;;;;10.37;7.10;;;;;;;15.16;100.00;96132.41;6118625;23;20088;-80
2023/06/02 04:57:35;;;;;;;13.43;7.30;;;;;;;14.95;100.00;96130.56;6119070;23;20056;-80
2023/06/02 05:00:06;;;;;;;11.17;7.33;;;;;;;14.90;100.00;96135.63;6119601;23;20093;-80
2023/06/02 05:02:32;;;;;;;11.57;7.50;;;;;;;14.84;100.00;96135.38;6120138;23;20013;-81
2023/06/02 05:04:58;;;;;;;11.53;7.63;;;;;;;15.47;100.00;96147.97;6073389;23;20789;-81
2023/06/02 05:07:24;;;;;;;11.53;7.40;;;;;;;15.79;100.00;96147.44;6073433;23;20009;-80
2023/06/02 05:09:50;;;;;;;10.17;6.00;;;;;;;15.63;100.00;96147.69;6101799;23;20016;-79
2023/06/02 05:12:16;;;;;;;13.13;7.07;;;;;;;15.85;100.00;96150.28;6108344;23;20005;-79
2023/06/02 05:14:42;;;;;;;12.27;6.60;;;;;;;15.60;100.00;96145.41;6127206;23;20015;-80
2023/06/02 05:17:10;;;;;;;11.57;7.10;;;;;;;16.11;100.00;96131.88;6151845;23;20009;-83
2023/06/02 05:19:41;;;;;;;12.20;7.53;;;;;;;16.18;100.00;96140.69;6151477;23;20225;-81
2023/06/02 05:22:06;;;;;;;11.33;7.23;;;;;;;16.14;100.00;96142.09;6127892;23;20005;-81
2023/06/02 05:24:32;;;;;;;11.37;6.77;;;;;;;16.41;100.00;96142.25;6134239;23;20063;-82
2023/06/02 05:27:03;;;;;;;11.40;7.67;;;;;;;16.11;100.00;96149.66;6134223;23;20005;-82
2023/06/02 05:29:29;;;;;;;10.33;7.23;;;;;;;16.42;100.00;96143.88;6158805;23;20019;-82
2023/06/02 05:31:54;;;;;;;12.53;8.40;;;;;;;16.37;100.00;96135.69;6158306;23;20013;-82
2023/06/02 05:34:24;;;;;;;13.77;9.00;;;;;;;16.42;100.00;96133.25;6158962;23;20001;-82
2023/06/02 05:36:50;;;;;;;11.03;8.00;;;;;;;16.87;100.00;96139.78;6134873;23;20079;-82
2023/06/02 05:39:15;;;;;;;12.50;8.27;;;;;;;16.81;100.00;96137.91;6134434;23;20028;-82
2023/06/02 05:41:42;;;;;;;14.63;8.87;;;;;;;17.11;100.00;96141.03;6134504;23;20019;-83
2023/06/02 05:44:08;;;;;;;12.27;8.80;;;;;;;17.19;100.00;96130.19;6134048;23;20009;-82
2023/06/02 05:46:33;;;;;;;10.50;7.67;;;;;;;17.98;100.00;96131.22;6130080;23;20009;-82
2023/06/02 05:48:59;;;;;;;14.50;8.17;;;;;;;18.05;100.00;96132.03;6126975;23;20013;-82
2023/06/02 05:51:31;;;;;;;12.20;9.17;;;;;;;18.07;100.00;96129.13;6127872;23;20024;-80
2023/06/02 05:54:00;;;;;;;11.80;8.73;;;;;;;17.90;100.00;96128.75;6151951;23;20091;-80
2023/06/02 05:56:36;;;;;;;12.03;8.57;;;;;;;18.11;100.00;96125.06;6124934;23;20165;-81
2023/06/02 05:59:02;;;;;;;11.50;7.83;;;;;;;18.80;100.00;96124.38;6125571;23;20071;-83
2023/06/02 06:01:29;;;;;;;15.13;9.60;;;;;;;19.50;100.00;96126.16;6126378;23;20377;-81
2023/06/02 06:03:54;;;;;;;14.30;9.30;;;;;;;18.62;100.00;96126.91;6150219;23;20009;-82
2023/06/02 06:06:21;;;;;;;11.40;7.80;;;;;;;19.11;100.00;96130.75;6125344;23;20005;-81
2023/06/02 06:08:46;;;;;;;10.43;8.20;;;;;;;18.58;100.00;96131.84;6126142;23;20005;-81
2023/06/02 06:11:12;;;;;;;13.30;9.03;;;;;;;18.53;100.00;96134.31;6151287;23;20009;-81
2023/06/02 06:13:38;;;;;;;12.33;8.80;;;;;;;19.33;100.00;96125.88;6127249;23;20043;-81
2023/06/02 06:16:04;;;;;;;14.27;8.30;;;;;;;19.58;100.00;96135.72;6128721;23;20452;-81
2023/06/02 06:18:30;;;;;;;12.80;8.97;;;;;;;19.72;100.00;96137.31;6157386;23;20366;-85
2023/06/02 06:21:05;;;;;;;14.03;9.00;;;;;;;20.48;100.00;96130.75;6157661;23;20016;-83
2023/06/02 06:23:30;;;;;;;17.20;9.03;;;;;;;21.16;100.00;96121.66;6151688;23;20008;-83
2023/06/02 06:25:56;;;;;;;13.50;8.77;;;;;;;20.88;100.00;96125.72;6150571;23;20009;-83
2023/06/02 06:28:22;;;;;;;15.57;9.30;;;;;;;20.69;100.00;96116.13;6149462;23;20028;-83
2023/06/02 06:30:49;;;;;;;14.73;9.73;;;;;;;20.96;100.00;96124.63;6125836;23;20051;-82
2023/06/02 06:33:15;;;;;;;12.82;9.00;;;;;;;21.38;100.00;96129.97;6149837;23;20001;-83
2023/06/02 06:35:41;;;;;;;12.43;9.63;;;;;;;21.24;100.00;96132.00;6124930;23;20056;-83
2023/06/02 06:38:08;;;;;;;11.10;8.45;;;;;;;22.23;100.00;96134.94;6120706;23;20013;-83
2023/06/02 06:40:34;;;;;;;12.20;8.68;;;;;;;20.95;100.00;96134.47;6121803;23;20504;-83
2023/06/02 06:43:00;;;;;;;12.63;8.57;;;;;;;21.95;100.00;96132.94;6122964;23;20496;-82
2023/06/02 06:45:46;;;;;;;12.32;8.40;;;;;;;22.05;100.00;96132.34;6143746;23;20056;-83
2023/06/02 06:48:12;;;;;;;14.45;9.13;;;;;;;21.19;100.00;96132.72;6144321;23;20015;-82
2023/06/02 06:50:38;;;;;;;11.52;9.02;;;;;;;21.79;100.00;96139.78;6121924;23;20005;-82
2023/06/02 06:53:04;;;;;;;12.73;8.10;;;;;;;21.56;100.00;96134.41;6149461;23;20004;-82
2023/06/02 06:55:29;;;;;;;12.27;8.50;;;;;;;23.12;99.52;96136.44;6152297;23;20009;-83
2023/06/02 06:57:56;;;;;;;12.65;8.70;;;;;;;23.01;98.86;96133.56;6125089;23;20017;-83
2023/06/02 07:00:21;;;;;;;14.38;8.73;;;;;;;23.14;96.79;96143.19;6149482;23;20456;-83
2023/06/02 07:02:51;;;;;;;11.35;7.55;;;;;;;24.58;87.14;96139.00;6125172;23;20092;-83
2023/06/02 07:05:17;;;;;;;10.65;7.70;;;;;;;23.72;90.78;96136.69;6125967;23;20466;-83
2023/06/02 07:07:43;;;;;;;13.60;9.27;;;;;;;24.23;86.80;96147.38;6157488;23;20013;-84
2023/06/02 07:10:10;;;;;;;11.18;8.07;;;;;;;24.14;86.53;96149.66;6132508;23;20008;-83
2023/06/02 07:12:36;;;;;;;12.10;7.55;;;;;;;25.14;76.59;96142.34;6132789;23;20375;-84
2023/06/02 07:15:03;;;;;;;11.00;8.30;;;;;;;23.16;93.30;96153.69;6183758;23;20067;-83
2023/06/02 07:17:28;;;;;;;10.00;8.02;;;;;;;23.85;90.92;96142.78;6130660;23;20039;-83
2023/06/02 07:19:54;;;;;;;11.32;8.70;;;;;;;25.16;81.37;96140.22;6132529;23;20437;-83
2023/06/02 07:22:21;;;;;;;12.82;7.22;;;;;;;25.55;73.24;96148.13;6132283;23;20012;-83
2023/06/02 07:24:46;;;;;;;9.00;7.20;;;;;;;25.35;77.78;96140.66;6152698;23;20009;-83
2023/06/02 07:27:13;;;;;;;10.48;7.85;;;;;;;25.43;77.97;96139.38;6148782;23;20005;-83
2023/06/02 07:29:39;;;;;;;11.80;7.93;;;;;;;25.69;75.65;96134.19;6150426;23;20020;-83
2023/06/02 07:32:05;;;;;;;11.43;8.05;;;;;;;26.66;68.76;96137.53;6151986;23;20005;-88
2023/06/02 07:34:31;;;;;;;12.88;7.40;;;;;;;27.04;64.03;96139.03;6128846;23;20005;-88
2023/06/02 07:37:00;;;;;;;11.55;7.78;;;;;;;25.88;65.44;96132.75;6127465;23;20072;-89
2023/06/02 07:39:26;;;;;;;9.45;7.63;;;;;;;26.66;66.35;96138.38;6130057;23;20421;-85
2023/06/02 07:41:52;;;;;;;11.82;7.65;;;;;;;27.19;62.80;96140.97;6126948;23;20467;-85
2023/06/02 07:44:17;;;;;;;12.43;8.25;;;;;;;25.09;79.47;96144.94;6151645;23;20005;-85
2023/06/02 07:46:44;;;;;;;12.07;7.72;;;;;;;27.09;63.33;96140.91;6127013;23;20001;-86
2023/06/02 07:49:14;;;;;;;8.60;7.15;;;;;;;27.63;58.29;96132.38;6127916;23;20005;-85
2023/06/02 07:51:39;;;;;;;11.48;7.90;;;;;;;26.16;68.89;96150.47;6126126;23;20051;-85
2023/06/02 07:54:05;;;;;;;13.63;8.40;;;;;;;26.13;74.00;96150.19;6148492;23;20080;-86
2023/06/02 07:56:31;;;;;;;15.18;7.45;;;;;;;27.54;60.19;96142.91;6150684;23;20028;-83
2023/06/02 07:58:57;;;;;;;15.15;8.13;;;;;;;27.53;58.33;96140.47;6148602;23;20111;-83
2023/06/02 08:01:22;;;;;;;11.18;7.50;;;;;;;27.25;55.33;96148.81;6124545;23;20478;-83
2023/06/02 08:03:49;;;;;;;11.40;7.30;;;;;;;27.60;57.31;96141.00;6124507;23;20060;-83
2023/06/02 08:06:15;;;;;;;10.85;7.10;;;;;;;27.63;61.35;96135.06;6148953;23;20346;-83
2023/06/02 08:08:41;;;;;;;9.23;6.40;;;;;;;28.64;50.54;96136.06;6149134;23;20032;-83
2023/06/02 08:11:06;;;;;;;10.48;7.97;;;;;;;28.72;51.18;96132.75;6148140;23;19997;-84
2023/06/02 08:13:32;;;;;;;11.43;7.50;;;;;;;28.98;48.64;96133.47;6126242;23;20016;-83
2023/06/02 08:15:59;;;;;;;8.65;6.38;;;;;;;29.23;46.48;96135.22;6131386;23;20072;-84
2023/06/02 08:18:24;;;;;;;10.43;7.35;;;;;;;28.37;50.57;96133.66;6125742;23;20008;-83
2023/06/02 08:20:50;;;;;;;8.15;6.70;;;;;;;27.19;53.48;96139.06;6150846;23;20032;-83
2023/06/02 08:23:17;;;;;;;10.98;7.72;;;;;;;25.78;67.67;96140.75;6153669;23;20007;-83
2023/06/02 08:25:44;;;;;;;8.77;6.82;;;;;;;28.17;56.96;96137.25;6151407;23;20381;-83
2023/06/02 08:28:11;;;;;;;10.20;6.30;;;;;;;29.07;49.82;96128.28;6180761;23;20009;-83
2023/06/02 08:30:37;;;;;;;11.38;6.53;;;;;;;27.87;57.21;96130.78;6132103;23;20012;-85
2023/06/02 08:33:08;;;;;;;9.05;6.97;;;;;;;28.30;52.35;96138.53;6131380;23;20005;-83
2023/06/02 08:35:36;;;;;;;9.80;6.57;;;;;;;28.89;52.96;96138.63;6155713;23;20429;-83
2023/06/02 08:38:07;;;;;;;8.85;6.65;;;;;;;29.81;46.37;96135.38;6157506;23;20005;-84
2023/06/02 08:40:37;;;;;;;10.18;7.10;;;;;;;30.15;44.36;96137.25;6132662;23;20310;-83
2023/06/02 08:43:13;;;;;;;9.23;6.43;;;;;;;29.90;46.88;96140.97;6157124;23;20013;-83
2023/06/02 08:45:44;;;;;;;10.27;6.72;;;;;;;29.96;43.28;96136.34;6156439;23;20394;-84
2023/06/02 08:48:17;;;;;;;13.15;6.60;;;;;;;29.74;45.01;96145.72;6125351;23;20088;-83
2023/06/02 08:50:47;;;;;;;7.82;6.28;;;;;;;29.52;43.51;96131.78;6150405;23;20012;-83
2023/06/02 08:53:15;;;;;;;8.75;6.07;;;;;;;29.69;43.34;96142.25;6147743;23;20076;-83
2023/06/02 08:55:42;;;;;;;9.05;6.15;;;;;;;30.04;44.02;96133.00;6126509;23;20009;-84
2023/06/02 08:58:11;;;;;;;9.90;6.55;;;;;;;30.50;43.04;96140.69;6150795;23;20009;-83
2023/06/02 09:00:37;;;;;;;9.23;6.70;;;;;;;29.29;46.16;96144.94;6149683;23;20397;-83
2023/06/02 09:03:04;;;;;;;8.43;6.10;;;;;;;29.08;47.01;96143.47;6150271;23;20005;-83
2023/06/02 09:05:33;;;;;;;9.50;6.50;;;;;;;30.47;43.80;96141.28;6145743;23;20091;-84
2023/06/02 09:08:12;;;;;;;9.63;6.20;;;;;;;30.05;43.00;96137.34;6121884;23;20004;-84
2023/06/02 09:10:41;;;;;;;10.60;6.45;;;;;;;29.91;43.19;96141.78;6172556;23;20341;-84
2023/06/02 09:13:10;;;;;;;8.32;6.80;;;;;;;28.25;47.98;96147.50;6121184;23;20067;-84
2023/06/02 09:15:59;;;;;;;10.75;6.47;;;;;;;28.71;49.58;96147.38;6123136;23;20005;-84
2023/06/02 09:18:25;;;;;;;9.55;7.22;;;;;;;30.13;43.49;96141.31;6151399;23;20005;-84
2023/06/02 09:20:52;;;;;;;11.15;6.75;;;;;;;28.74;45.58;96146.84;6126360;23;20087;-84
2023/06/02 09:23:20;;;;;;;10.00;7.35;;;;;;;29.84;43.01;96139.41;6149331;23;20007;-84
2023/06/02 09:25:46;;;;;;;8.93;6.15;;;;;;;29.79;43.11;96142.97;6146407;23;20012;-85
2023/06/02 09:28:12;;;;;;;10.02;6.68;;;;;;;28.45;44.01;96146.66;6146830;23;20001;-84
2023/06/02 09:30:38;;;;;;;9.13;6.18;;;;;;;27.68;50.28;96144.00;6149321;23;20013;-84
2023/06/02 09:33:11;;;;;;;8.98;6.47;;;;;;;27.74;45.07;96144.81;6124810;23;20015;-84
2023/06/02 09:35:40;;;;;;;11.73;6.35;;;;;;;28.34;48.20;96145.84;6128806;23;20056;-84
2023/06/02 09:38:26;;;;;;;10.25;6.82;;;;;;;28.84;45.60;96143.25;6129848;23;20011;-87
2023/06/02 09:40:52;;;;;;;7.13;5.30;;;;;;;29.59;40.12;96143.13;6128994;23;20005;-83
2023/06/02 09:43:30;;;;;;;9.52;5.72;;;;;;;30.05;40.43;96145.47;6126419;23;20005;-83
2023/06/02 09:46:00;;;;;;;7.50;5.60;;;;;;;30.33;37.69;96152.00;6148533;23;20060;-84
2023/06/02 09:48:29;;;;;;;8.25;5.65;;;;;;;30.39;37.44;96150.06;6147326;23;20016;-83
2023/06/02 09:50:55;;;;;;;8.95;5.95;;;;;;;30.53;37.44;96151.78;6152606;23;20079;-84
2023/06/02 09:53:22;;;;;;;8.73;5.95;;;;;;;31.42;34.60;96150.41;6129380;23;20012;-83
2023/06/02 09:55:50;;;;;;;8.82;5.68;;;;;;;31.33;35.85;96157.63;6151428;23;20084;-82
2023/06/02 09:58:16;;;;;;;8.43;6.03;;;;;;;31.34;36.52;96145.66;6151403;23;20011;-83
2023/06/02 10:00:42;;;;;;;9.45;6.30;;;;;;;31.50;35.17;96148.97;6125598;23;20040;-83
2023/06/02 10:03:07;;;;;;;9.75;6.55;;;;;;;31.80;35.27;96142.22;6149455;23;20434;-83
2023/06/02 10:05:35;;;;;;;9.15;5.75;;;;;;;30.08;37.45;96153.03;6149676;23;20004;-83
2023/06/02 10:08:35;;;;;;;10.50;5.75;;;;;;;31.52;35.78;96150.25;6149069;23;20009;-83
2023/06/02 10:11:06;;;;;;;11.60;6.40;;;;;;;31.81;34.82;96143.84;6151060;23;20001;-83
2023/06/02 10:14:03;;;;;;;10.30;5.87;;;;;;;29.62;38.50;96147.19;6153241;23;20389;-86
2023/06/02 10:16:50;;;;;;;9.38;6.10;;;;;;;31.53;34.65;96142.94;6185024;23;20071;-86
2023/06/02 10:19:24;;;;;;;12.15;6.75;;;;;;;30.54;35.55;96147.16;6134900;23;20005;-86
2023/06/02 10:22:23;;;;;;;7.38;4.60;;;;;;;30.73;35.15;96148.03;6135011;23;20658;-86
2023/06/02 10:25:27;;;;;;;8.55;5.45;;;;;;;31.87;31.73;96143.47;6151984;23;20426;-86
2023/06/02 10:27:53;;;;;;;6.88;5.13;;;;;;;30.66;34.98;96144.84;6132910;23;20012;-86
2023/06/02 10:30:21;;;;;;;7.80;5.50;;;;;;;31.86;32.57;96135.59;6129963;23;20067;-82
2023/06/02 10:32:49;;;;;;;8.85;5.07;;;;;;;31.10;33.11;96137.53;6126383;23;20008;-83
2023/06/02 10:35:17;;;;;;;7.88;5.40;;;;;;;32.21;33.07;96127.94;6126793;23;20020;-82
2023/06/02 10:37:45;;;;;;;10.65;9.13;;;;;;;31.17;35.07;96138.78;6151793;23;20096;-82
2023/06/02 10:40:14;;;;;;;8.20;6.13;;;;;;;29.64;37.84;96137.66;6174661;23;20055;-82
2023/06/02 10:43:12;;;;;;;12.57;7.90;;;;;;;28.98;38.85;96136.16;6144497;23;20005;-82
2023/06/02 10:45:38;;;;;;;9.68;5.25;;;;;;;30.48;35.41;96137.44;6119617;23;20112;-82
2023/06/02 10:48:40;;;;;;;6.30;4.60;;;;;;;28.55;36.65;96140.41;6143485;23;20754;-81
2023/06/02 10:51:07;;;;;;;7.53;4.93;;;;;;;30.34;33.28;96133.81;6028324;23;20069;-81
2023/06/02 10:53:33;;;;;;;10.40;5.30;;;;;;;30.82;31.90;96131.09;6103582;23;20009;-81
2023/06/02 10:56:41;;;;;;;7.68;5.55;;;;;;;31.51;31.64;96121.47;6152194;23;20056;-81
2023/06/02 10:59:08;;;;;;;8.98;4.80;;;;;;;31.38;31.23;96130.38;6127295;23;20087;-81
2023/06/02 11:01:53;;;;;;;9.23;4.82;;;;;;;31.37;31.21;96134.19;6151142;23;20013;-81
2023/06/02 11:04:32;;;;;;;8.35;5.22;;;;;;;29.96;33.44;96130.91;6151340;23;20041;-82
2023/06/02 11:07:23;;;;;;;6.70;4.45;;;;;;;32.17;30.04;96116.84;6126514;23;20013;-82
2023/06/02 11:10:03;;;;;;;8.05;4.35;;;;;;;31.09;29.32;96123.16;6150309;23;20441;-82
2023/06/02 11:12:50;;;;;;;17.17;5.80;;;;;;;31.46;29.70;96116.13;6153279;23;20009;-82
2023/06/02 11:15:17;;;;;;;9.27;4.38;;;;;;;31.63;28.69;96115.59;6125407;23;20032;-82
2023/06/02 11:17:44;;;;;;;7.43;4.80;;;;;;;31.80;29.71;96112.31;6151237;23;20373;-82
2023/06/02 11:20:10;;;;;;;8.50;4.50;;;;;;;32.02;29.99;96117.13;6150400;23;20393;-82
2023/06/02 11:22:39;;;;;;;9.93;4.65;;;;;;;32.03;30.37;96118.75;6132330;23;20492;-84
2023/06/02 11:25:05;;;;;;;15.35;5.28;;;;;;;31.50;31.67;96117.16;6133034;23;20033;-83
2023/06/02 11:27:47;;;;;;;7.70;5.13;;;;;;;30.88;32.61;96116.38;6132787;23;20008;-83
2023/06/02 11:30:17;;;;;;;9.63;5.10;;;;;;;30.41;31.23;96118.81;6131493;23;20021;-82
2023/06/02 11:32:47;;;;;;;11.60;4.82;;;;;;;28.70;34.68;96115.97;6132929;23;20005;-81